Time;durP1;ratioP1;P1;durP2;ratioP2;P2;SDS_P1;SDS_P2;PMS_P1;PMS_P2;Temp;Humidity;BMP_temperature;BMP_pressure;BME280_temperature;BME280_humidity;BME280_pressure;Samples;Min_cycle;Max_cycle;Signal;HPM_P1;HPM_P2
2023/12/21 00:01:35;;;;;;;9.00;8.10;;;7.50;99.90;;;;;;5071352;28;20272;-67
2023/12/21 00:04:02;;;;;;;10.17;8.10;;;7.60;99.90;;;;;;5072860;28;20542;-65
2023/12/21 00:06:28;;;;;;;9.33;8.23;;;7.60;99.90;;;;;;5071359;28;20180;-68
2023/12/21 00:08:54;;;;;;;10.87;8.90;;;7.60;99.90;;;;;;5072793;28;20256;-68
2023/12/21 00:11:19;;;;;;;12.30;8.33;;;7.60;99.90;;;;;;5072843;28;20212;-66
2023/12/21 00:13:45;;;;;;;11.60;8.90;;;7.60;99.90;;;;;;5074780;28;20200;-66
2023/12/21 00:16:12;;;;;;;13.33;8.50;;;7.60;99.90;;;;;;5076374;28;20237;-66
2023/12/21 00:18:38;;;;;;;11.30;9.17;;;7.60;99.90;;;;;;5076412;28;20166;-67
2023/12/21 00:21:04;;;;;;;12.43;9.63;;;7.60;99.90;;;;;;5076255;28;20205;-66
2023/12/21 00:23:30;;;;;;;14.90;9.50;;;7.60;99.90;;;;;;5075151;28;20174;-67
2023/12/21 00:25:56;;;;;;;12.33;9.00;;;7.70;99.90;;;;;;5075778;28;20181;-67
2023/12/21 00:28:22;;;;;;;10.87;9.20;;;7.70;99.90;;;;;;5076272;28;20527;-67
2023/12/21 00:30:48;;;;;;;12.57;8.97;;;7.60;99.90;;;;;;5076241;28;20264;-67
2023/12/21 00:33:14;;;;;;;12.80;9.63;;;7.70;99.90;;;;;;5076567;28;20169;-66
2023/12/21 00:35:39;;;;;;;11.57;9.10;;;7.70;99.90;;;;;;5075970;28;20174;-66
2023/12/21 00:38:05;;;;;;;11.57;9.03;;;7.70;99.90;;;;;;5075964;28;20704;-67
2023/12/21 00:40:31;;;;;;;9.80;8.53;;;7.70;99.90;;;;;;5075034;28;20193;-67
2023/12/21 00:42:57;;;;;;;11.00;8.90;;;7.70;99.90;;;;;;5075888;28;20178;-66
2023/12/21 00:45:23;;;;;;;10.10;8.67;;;7.70;99.90;;;;;;5074572;28;20177;-66
2023/12/21 00:47:49;;;;;;;10.47;8.83;;;7.70;99.90;;;;;;5076295;28;20232;-68
2023/12/21 00:50:15;;;;;;;10.03;8.50;;;7.80;99.90;;;;;;5075350;28;20270;-67
2023/12/21 00:52:41;;;;;;;10.93;9.17;;;7.70;99.90;;;;;;5075778;28;20174;-66
2023/12/21 00:55:07;;;;;;;12.03;8.50;;;7.80;99.90;;;;;;5075971;28;20544;-66
2023/12/21 00:57:33;;;;;;;10.97;7.90;;;7.70;99.90;;;;;;5075626;28;20697;-67
2023/12/21 00:59:59;;;;;;;12.87;8.57;;;7.70;99.90;;;;;;5074292;28;20177;-66
2023/12/21 01:02:25;;;;;;;12.30;9.77;;;7.70;99.90;;;;;;5074274;28;20280;-66
2023/12/21 01:04:51;;;;;;;11.63;8.73;;;7.70;99.90;;;;;;5073949;28;20174;-66
2023/12/21 01:07:17;;;;;;;13.67;9.03;;;7.70;99.90;;;;;;5075882;28;20264;-66
2023/12/21 01:09:43;;;;;;;11.13;8.00;;;7.70;99.90;;;;;;5075483;28;20173;-66
2023/12/21 01:12:09;;;;;;;12.60;8.33;;;7.70;99.90;;;;;;5074055;28;20708;-67
2023/12/21 01:14:35;;;;;;;10.47;8.23;;;7.70;99.90;;;;;;5075224;28;20186;-66
2023/12/21 01:17:00;;;;;;;12.93;8.50;;;7.80;99.90;;;;;;5075425;28;20736;-66
2023/12/21 01:19:26;;;;;;;11.53;8.07;;;7.70;99.90;;;;;;5075281;28;20181;-66
2023/12/21 01:21:52;;;;;;;9.37;8.47;;;7.80;99.90;;;;;;5074968;28;20247;-66
2023/12/21 01:24:19;;;;;;;8.70;7.07;;;7.80;99.90;;;;;;5074844;28;20180;-67
2023/12/21 01:26:45;;;;;;;11.37;7.87;;;7.80;99.90;;;;;;5075938;28;20165;-67
2023/12/21 01:29:10;;;;;;;12.40;7.60;;;7.80;99.90;;;;;;5076230;28;20178;-67
2023/12/21 01:31:36;;;;;;;9.13;7.70;;;7.80;99.90;;;;;;5075567;28;20736;-66
2023/12/21 01:34:05;;;;;;;10.63;7.60;;;7.80;99.90;;;;;;5075889;28;20627;-66
2023/12/21 01:36:31;;;;;;;8.40;7.57;;;7.80;99.90;;;;;;5074815;28;20198;-67
2023/12/21 01:38:57;;;;;;;11.23;7.57;;;7.80;99.90;;;;;;5075480;28;20530;-67
2023/12/21 01:41:23;;;;;;;9.17;7.87;;;7.80;99.90;;;;;;5074856;28;20567;-65
2023/12/21 01:43:49;;;;;;;8.67;7.07;;;7.80;99.90;;;;;;5074909;28;20174;-66
2023/12/21 01:46:16;;;;;;;10.23;7.67;;;7.80;99.90;;;;;;5074769;28;20170;-66
2023/12/21 01:48:42;;;;;;;8.63;7.73;;;7.80;99.90;;;;;;5073306;28;20190;-66
2023/12/21 01:51:11;;;;;;;8.97;7.53;;;7.80;99.90;;;;;;5074395;28;20194;-66
2023/12/21 01:53:37;;;;;;;9.50;7.90;;;7.90;99.90;;;;;;5074858;28;20585;-66
2023/12/21 01:56:04;;;;;;;8.33;7.23;;;7.80;99.90;;;;;;5073302;28;20181;-66
2023/12/21 01:58:31;;;;;;;11.23;7.63;;;7.80;99.90;;;;;;5074860;28;20623;-67
2023/12/21 02:00:58;;;;;;;9.67;7.67;;;7.80;99.90;;;;;;5075004;28;20586;-67
2023/12/21 02:03:26;;;;;;;9.77;7.57;;;7.90;99.90;;;;;;5074509;28;20174;-66
2023/12/21 02:05:52;;;;;;;10.20;8.13;;;7.80;99.90;;;;;;5074392;28;20216;-67
2023/12/21 02:08:18;;;;;;;10.53;7.73;;;7.90;99.90;;;;;;5074332;28;20615;-66
2023/12/21 02:10:43;;;;;;;10.73;7.83;;;7.90;99.90;;;;;;5072969;28;20251;-66
2023/12/21 02:13:09;;;;;;;8.40;7.17;;;7.90;99.90;;;;;;5074183;28;20174;-67
2023/12/21 02:15:35;;;;;;;8.93;7.27;;;7.90;99.90;;;;;;5074077;28;20206;-66
2023/12/21 02:18:03;;;;;;;8.37;7.40;;;7.90;99.90;;;;;;5074768;28;20252;-66
2023/12/21 02:20:29;;;;;;;8.20;6.90;;;7.90;99.90;;;;;;5073817;28;20268;-66
2023/12/21 02:22:59;;;;;;;10.97;7.83;;;7.90;99.90;;;;;;5074205;28;20166;-67
2023/12/21 02:25:25;;;;;;;9.60;7.93;;;7.90;99.90;;;;;;5074535;28;20623;-67
2023/12/21 02:27:51;;;;;;;9.37;7.60;;;7.90;99.90;;;;;;5073829;28;20173;-67
2023/12/21 02:30:17;;;;;;;12.23;7.73;;;7.90;99.90;;;;;;5073724;28;20550;-67
2023/12/21 02:32:43;;;;;;;9.73;8.20;;;7.90;99.90;;;;;;5074108;28;20174;-67
2023/12/21 02:35:09;;;;;;;12.50;7.67;;;8.00;99.90;;;;;;5073605;28;20239;-67
2023/12/21 02:37:35;;;;;;;11.10;8.27;;;7.90;99.90;;;;;;5072548;28;20197;-66
2023/12/21 02:40:01;;;;;;;10.60;8.10;;;7.90;99.90;;;;;;5074094;28;20170;-67
2023/12/21 02:42:26;;;;;;;10.53;7.97;;;8.00;99.90;;;;;;5073793;28;20239;-67
2023/12/21 02:44:52;;;;;;;12.80;8.53;;;8.00;99.90;;;;;;5073815;28;20174;-67
2023/12/21 02:47:18;;;;;;;9.60;8.23;;;7.90;99.90;;;;;;5073855;28;20185;-68
2023/12/21 02:49:44;;;;;;;12.23;9.33;;;8.00;99.90;;;;;;5073666;28;20709;-66
2023/12/21 02:52:10;;;;;;;10.57;8.90;;;8.00;99.90;;;;;;5071987;28;20209;-66
2023/12/21 02:54:36;;;;;;;13.07;8.97;;;8.00;99.90;;;;;;5073917;28;20248;-67
2023/12/21 02:57:02;;;;;;;12.27;9.27;;;8.00;99.90;;;;;;5074076;28;20671;-66
2023/12/21 02:59:27;;;;;;;14.17;9.10;;;8.00;99.90;;;;;;5073541;28;20201;-67
2023/12/21 03:01:53;;;;;;;11.67;9.27;;;8.00;99.90;;;;;;5073423;28;20201;-67
2023/12/21 03:04:19;;;;;;;11.30;9.23;;;8.10;99.90;;;;;;5073647;28;20205;-67
2023/12/21 03:06:45;;;;;;;13.90;9.43;;;8.00;99.90;;;;;;5073274;28;20561;-67
2023/12/21 03:09:10;;;;;;;12.57;9.77;;;8.00;99.90;;;;;;5072278;28;20178;-66
2023/12/21 03:11:36;;;;;;;10.83;9.33;;;8.00;99.90;;;;;;5072246;28;20205;-67
2023/12/21 03:14:02;;;;;;;11.60;9.33;;;8.00;99.90;;;;;;5073143;28;20196;-67
2023/12/21 03:16:28;;;;;;;12.60;8.67;;;8.00;99.90;;;;;;5073180;28;20670;-67
2023/12/21 03:18:54;;;;;;;12.60;9.17;;;8.00;99.90;;;;;;5073649;28;20181;-67
2023/12/21 03:21:20;;;;;;;13.17;9.33;;;8.00;99.90;;;;;;5072876;28;20199;-68
2023/12/21 03:23:46;;;;;;;13.13;9.30;;;8.00;99.90;;;;;;5073361;28;20231;-68
2023/12/21 03:26:11;;;;;;;10.30;8.80;;;8.00;99.90;;;;;;5071961;28;20704;-68
2023/12/21 03:28:44;;;;;;;11.03;8.70;;;8.00;99.90;;;;;;5073486;28;20169;-67
2023/12/21 03:31:10;;;;;;;12.40;9.17;;;8.00;99.90;;;;;;5071982;28;20275;-68
2023/12/21 03:33:36;;;;;;;11.10;8.17;;;8.00;99.90;;;;;;5073557;28;20256;-67
2023/12/21 03:36:03;;;;;;;11.50;8.57;;;8.00;99.90;;;;;;5073046;28;20705;-67
2023/12/21 03:38:28;;;;;;;10.83;8.27;;;8.00;99.90;;;;;;5073603;28;20170;-67
2023/12/21 03:40:54;;;;;;;13.13;8.53;;;8.00;99.90;;;;;;5071751;28;20701;-66
2023/12/21 03:43:20;;;;;;;11.53;8.63;;;8.00;99.90;;;;;;5072935;28;20178;-67
2023/12/21 03:45:46;;;;;;;12.07;8.53;;;8.00;99.90;;;;;;5072967;28;20218;-65
2023/12/21 03:48:12;;;;;;;10.00;8.50;;;8.00;99.90;;;;;;5075329;28;20286;-67
2023/12/21 03:50:38;;;;;;;13.07;9.07;;;8.00;99.90;;;;;;5077249;28;20299;-67
2023/12/21 03:53:05;;;;;;;11.60;7.87;;;8.00;99.90;;;;;;5077252;28;20178;-67
2023/12/21 03:55:31;;;;;;;9.20;7.50;;;8.00;99.90;;;;;;5076947;28;20192;-67
2023/12/21 03:57:57;;;;;;;8.50;7.40;;;8.00;99.90;;;;;;5077243;28;20205;-67
2023/12/21 04:00:23;;;;;;;10.50;7.40;;;8.00;99.90;;;;;;5076787;28;20197;-67
2023/12/21 04:02:49;;;;;;;9.30;7.23;;;8.00;99.90;;;;;;5075367;28;20600;-67
2023/12/21 04:05:15;;;;;;;9.83;6.87;;;8.00;99.90;;;;;;5076586;28;20173;-64
2023/12/21 04:07:41;;;;;;;7.50;6.70;;;8.00;99.90;;;;;;5077170;28;20186;-67
2023/12/21 04:10:07;;;;;;;8.80;6.90;;;8.00;99.90;;;;;;5076715;28;20193;-67
2023/12/21 04:12:33;;;;;;;7.60;6.50;;;8.00;99.90;;;;;;5076533;28;20252;-66
2023/12/21 04:14:59;;;;;;;7.53;6.73;;;8.00;99.90;;;;;;5076321;28;20221;-66
2023/12/21 04:17:25;;;;;;;7.87;6.47;;;8.00;99.90;;;;;;5076587;28;20247;-65
2023/12/21 04:19:51;;;;;;;7.30;6.60;;;8.10;99.90;;;;;;5076936;28;20170;-67
2023/12/21 04:22:17;;;;;;;9.70;6.30;;;8.00;99.90;;;;;;5076021;28;20288;-67
2023/12/21 04:24:44;;;;;;;8.17;6.20;;;8.10;99.90;;;;;;5076226;28;20253;-67
2023/12/21 04:27:10;;;;;;;8.50;6.67;;;8.10;99.90;;;;;;5076359;28;20677;-67
2023/12/21 04:29:38;;;;;;;9.37;6.30;;;8.10;99.90;;;;;;5076544;28;20170;-65
2023/12/21 04:32:04;;;;;;;7.03;6.33;;;8.10;99.90;;;;;;5076079;28;20201;-67
2023/12/21 04:34:30;;;;;;;8.07;7.00;;;8.10;99.90;;;;;;5076728;28;20174;-67
2023/12/21 04:36:56;;;;;;;6.97;6.27;;;8.10;99.90;;;;;;5075658;28;20204;-67
2023/12/21 04:39:22;;;;;;;7.77;6.50;;;8.10;99.90;;;;;;5074865;28;20174;-66
2023/12/21 04:41:49;;;;;;;8.27;6.43;;;8.10;99.90;;;;;;5076036;28;20189;-67
2023/12/21 04:44:14;;;;;;;7.77;6.87;;;8.10;99.90;;;;;;5075922;28;20186;-66
2023/12/21 04:46:40;;;;;;;11.07;7.47;;;8.10;99.90;;;;;;5076478;28;20177;-66
2023/12/21 04:49:06;;;;;;;8.17;6.43;;;8.00;99.90;;;;;;5075669;28;20194;-67
2023/12/21 04:51:32;;;;;;;7.53;6.17;;;8.10;99.90;;;;;;5075696;28;20228;-67
2023/12/21 04:53:57;;;;;;;8.30;6.80;;;8.00;99.90;;;;;;5076024;28;20211;-67
2023/12/21 04:56:23;;;;;;;7.23;6.40;;;8.10;99.90;;;;;;5075793;28;20208;-65
2023/12/21 04:58:49;;;;;;;8.57;6.67;;;8.00;99.90;;;;;;5074630;28;20261;-67
2023/12/21 05:01:15;;;;;;;7.13;6.17;;;8.10;99.90;;;;;;5074631;28;20202;-67
2023/12/21 05:03:41;;;;;;;6.57;5.93;;;8.00;99.90;;;;;;5076137;28;20261;-65
2023/12/21 05:06:07;;;;;;;9.33;6.13;;;8.10;99.90;;;;;;5076004;28;20170;-66
2023/12/21 05:08:32;;;;;;;6.90;6.20;;;8.10;99.90;;;;;;5078253;28;20551;-67
2023/12/21 05:10:58;;;;;;;7.23;6.00;;;8.10;99.90;;;;;;5081208;28;20215;-66
2023/12/21 05:13:24;;;;;;;6.70;6.10;;;8.10;99.90;;;;;;5077178;28;20255;-66
2023/12/21 05:15:50;;;;;;;8.87;6.33;;;8.00;99.90;;;;;;5076220;28;20181;-67
2023/12/21 05:18:16;;;;;;;6.63;6.03;;;8.00;99.90;;;;;;5075718;28;20201;-67
2023/12/21 05:20:41;;;;;;;7.63;5.93;;;8.00;99.90;;;;;;5074228;28;20202;-67
2023/12/21 05:23:07;;;;;;;6.67;5.90;;;8.10;99.90;;;;;;5074310;28;20186;-66
2023/12/21 05:25:33;;;;;;;6.27;5.63;;;8.00;99.90;;;;;;5075700;28;20170;-65
2023/12/21 05:27:59;;;;;;;8.50;5.70;;;8.10;99.90;;;;;;5075216;28;20265;-67
2023/12/21 05:30:24;;;;;;;7.47;5.83;;;8.10;99.90;;;;;;5075356;28;20194;-68
2023/12/21 05:32:50;;;;;;;9.67;5.90;;;8.10;99.90;;;;;;5075125;28;20689;-68
2023/12/21 05:35:16;;;;;;;5.20;4.80;;;8.00;99.90;;;;;;5075471;28;20223;-66
2023/12/21 05:37:42;;;;;;;5.97;5.40;;;8.10;99.90;;;;;;5074430;28;20250;-66
2023/12/21 05:40:08;;;;;;;5.20;4.70;;;8.10;99.90;;;;;;5075186;28;20174;-66
2023/12/21 05:42:34;;;;;;;6.17;5.57;;;8.10;99.90;;;;;;5074636;28;20170;-66
2023/12/21 05:45:00;;;;;;;7.33;5.13;;;8.10;99.90;;;;;;5074518;28;20182;-66
2023/12/21 05:47:26;;;;;;;5.30;4.80;;;8.10;99.90;;;;;;5075072;28;20542;-66
2023/12/21 05:49:52;;;;;;;5.10;4.60;;;8.10;99.90;;;;;;5074486;28;20204;-66
2023/12/21 05:52:17;;;;;;;5.37;4.87;;;8.10;99.90;;;;;;5073991;28;20212;-66
2023/12/21 05:54:44;;;;;;;5.50;5.00;;;8.10;99.90;;;;;;5074715;28;20166;-66
2023/12/21 05:57:13;;;;;;;5.47;4.97;;;8.10;99.90;;;;;;5072900;28;20292;-67
2023/12/21 05:59:39;;;;;;;4.97;4.60;;;8.10;99.90;;;;;;5074579;28;20257;-67
2023/12/21 06:02:05;;;;;;;6.77;4.90;;;8.10;99.90;;;;;;5074197;28;20311;-66
2023/12/21 06:04:31;;;;;;;4.93;4.53;;;8.20;99.90;;;;;;5074154;28;20178;-67
2023/12/21 06:06:56;;;;;;;4.83;4.43;;;8.20;99.90;;;;;;5074004;28;20186;-66
2023/12/21 06:09:23;;;;;;;5.23;4.63;;;8.20;99.90;;;;;;5074371;28;20181;-66
2023/12/21 06:11:48;;;;;;;7.57;4.60;;;8.20;99.90;;;;;;5073722;28;20201;-67
2023/12/21 06:14:14;;;;;;;5.37;4.87;;;8.20;99.90;;;;;;5073980;28;20189;-68
2023/12/21 06:16:40;;;;;;;5.63;4.90;;;8.20;99.90;;;;;;5073833;28;20284;-67
2023/12/21 06:19:09;;;;;;;5.10;4.60;;;8.20;99.90;;;;;;5073879;28;20195;-67
2023/12/21 06:21:38;;;;;;;8.63;5.10;;;8.20;99.90;;;;;;5073577;28;20568;-66
2023/12/21 06:24:05;;;;;;;5.70;5.20;;;8.20;99.90;;;;;;5073774;28;20178;-66
2023/12/21 06:26:31;;;;;;;6.63;5.30;;;8.20;99.90;;;;;;5073811;28;20264;-67
2023/12/21 06:28:57;;;;;;;6.03;5.50;;;8.30;99.90;;;;;;5073740;28;20181;-66
2023/12/21 06:31:23;;;;;;;7.33;5.97;;;8.30;99.90;;;;;;5073931;28;20567;-66
2023/12/21 06:33:52;;;;;;;7.10;6.17;;;8.30;99.90;;;;;;5073692;28;20610;-67
2023/12/21 06:36:18;;;;;;;7.23;5.60;;;8.30;99.90;;;;;;5072114;28;20265;-65
2023/12/21 06:38:43;;;;;;;7.33;5.70;;;8.30;99.90;;;;;;5073920;28;20695;-65
2023/12/21 06:41:13;;;;;;;7.07;6.37;;;8.30;99.90;;;;;;5073760;28;20201;-65
2023/12/21 06:43:39;;;;;;;7.33;5.70;;;8.30;99.90;;;;;;5073377;28;20206;-66
2023/12/21 06:46:14;;;;;;;6.20;5.60;;;8.40;99.90;;;;;;5072231;28;20178;-67
2023/12/21 06:48:41;;;;;;;6.20;5.60;;;8.40;99.90;;;;;;5073476;28;20193;-66
2023/12/21 06:51:07;;;;;;;6.37;5.67;;;8.40;99.90;;;;;;5071828;28;20205;-64
2023/12/21 06:53:33;;;;;;;8.13;6.03;;;8.40;99.90;;;;;;5072110;28;20236;-66
2023/12/21 06:56:00;;;;;;;6.33;5.60;;;8.40;99.90;;;;;;5073397;28;20682;-65
2023/12/21 06:58:27;;;;;;;5.90;5.33;;;8.40;99.90;;;;;;5073375;28;20197;-66
2023/12/21 07:00:53;;;;;;;8.60;5.57;;;8.40;99.90;;;;;;5073543;28;20190;-67
2023/12/21 07:03:19;;;;;;;8.17;5.50;;;8.40;99.90;;;;;;5073527;28;20162;-67
2023/12/21 07:05:45;;;;;;;8.20;5.53;;;8.40;99.90;;;;;;5073300;28;20243;-66
2023/12/21 07:08:11;;;;;;;8.80;5.90;;;8.40;99.90;;;;;;5073025;28;20185;-67
2023/12/21 07:10:37;;;;;;;7.30;6.50;;;8.40;99.90;;;;;;5073109;28;20206;-67
2023/12/21 07:13:02;;;;;;;13.07;6.90;;;8.40;99.90;;;;;;5073795;28;20546;-67
2023/12/21 07:15:28;;;;;;;8.40;6.60;;;8.40;99.90;;;;;;5073054;28;20182;-67
2023/12/21 07:17:54;;;;;;;10.60;6.77;;;8.40;99.90;;;;;;5073002;28;20197;-66
2023/12/21 07:20:24;;;;;;;10.30;6.83;;;8.40;99.90;;;;;;5071728;28;20209;-67
2023/12/21 07:22:50;;;;;;;9.13;7.20;;;8.40;99.90;;;;;;5072307;28;20189;-65
2023/12/21 07:25:16;;;;;;;10.43;6.50;;;8.40;99.90;;;;;;5073036;28;20620;-67
2023/12/21 07:27:42;;;;;;;11.63;6.60;;;8.50;99.90;;;;;;5073032;28;20184;-67
2023/12/21 07:30:08;;;;;;;11.27;6.43;;;8.40;99.90;;;;;;5073156;28;20236;-67
2023/12/21 07:32:34;;;;;;;12.07;7.40;;;8.50;99.90;;;;;;5073157;28;20235;-65
2023/12/21 07:35:00;;;;;;;8.90;7.10;;;8.50;99.90;;;;;;5073180;28;20182;-65
2023/12/21 07:37:27;;;;;;;12.00;7.53;;;8.50;99.90;;;;;;5073034;28;20194;-66
2023/12/21 07:39:53;;;;;;;12.37;7.40;;;8.60;99.90;;;;;;5071674;28;20185;-66
2023/12/21 07:42:19;;;;;;;11.83;8.10;;;8.60;99.90;;;;;;5072832;28;20198;-67
2023/12/21 07:44:45;;;;;;;13.13;7.53;;;8.60;99.90;;;;;;5072896;28;20186;-65
2023/12/21 07:47:11;;;;;;;16.00;8.20;;;8.60;99.90;;;;;;5071536;28;20221;-66
2023/12/21 07:49:37;;;;;;;10.73;8.03;;;8.60;99.90;;;;;;5072719;28;20213;-66
2023/12/21 07:52:03;;;;;;;11.67;8.50;;;8.60;99.90;;;;;;5072602;28;20194;-66
2023/12/21 07:54:29;;;;;;;10.30;7.47;;;8.60;99.90;;;;;;5073382;28;20303;-67
2023/12/21 07:56:54;;;;;;;10.83;7.97;;;8.60;99.90;;;;;;5072703;28;20288;-67
2023/12/21 07:59:20;;;;;;;15.03;8.10;;;8.60;99.90;;;;;;5072738;28;20632;-65
2023/12/21 08:01:46;;;;;;;11.43;7.20;;;8.60;99.90;;;;;;5073155;28;20194;-67
2023/12/21 08:04:12;;;;;;;10.50;6.63;;;8.60;99.90;;;;;;5073249;28;20178;-67
2023/12/21 08:06:38;;;;;;;9.17;6.03;;;8.60;99.90;;;;;;5072465;28;20591;-67
2023/12/21 08:09:04;;;;;;;11.13;6.17;;;8.50;99.90;;;;;;5072531;28;20208;-67
2023/12/21 08:11:29;;;;;;;7.73;6.43;;;8.50;99.90;;;;;;5072785;28;20193;-66
2023/12/21 08:13:55;;;;;;;6.93;6.23;;;8.50;99.90;;;;;;5071867;28;20251;-66
2023/12/21 08:16:21;;;;;;;8.30;6.47;;;8.60;99.90;;;;;;5072727;28;20182;-67
2023/12/21 08:18:47;;;;;;;7.57;6.43;;;8.60;99.90;;;;;;5071278;28;20208;-67
2023/12/21 08:21:13;;;;;;;10.23;6.60;;;8.60;99.90;;;;;;5070999;28;20194;-66
2023/12/21 08:23:39;;;;;;;8.53;6.77;;;8.60;99.90;;;;;;5072691;28;20178;-65
2023/12/21 08:26:06;;;;;;;10.50;6.57;;;8.60;99.90;;;;;;5072674;28;20174;-65
2023/12/21 08:28:32;;;;;;;7.80;6.07;;;8.60;99.90;;;;;;5072451;28;20185;-66
2023/12/21 08:30:59;;;;;;;9.17;6.63;;;8.60;99.90;;;;;;5072327;28;20194;-66
2023/12/21 08:33:25;;;;;;;9.20;6.60;;;8.70;99.90;;;;;;5073691;28;20185;-67
2023/12/21 08:35:52;;;;;;;10.53;6.80;;;8.60;99.90;;;;;;5074862;28;20186;-66
2023/12/21 08:38:18;;;;;;;12.30;6.83;;;8.70;99.90;;;;;;5074269;28;20205;-66
2023/12/21 08:40:45;;;;;;;7.10;5.67;;;8.70;99.90;;;;;;5075981;28;20247;-67
2023/12/21 08:43:11;;;;;;;9.47;6.60;;;8.80;99.90;;;;;;5075988;28;20516;-66
2023/12/21 08:45:38;;;;;;;9.80;6.07;;;8.80;99.90;;;;;;5074676;28;20246;-66
2023/12/21 08:48:05;;;;;;;8.77;6.37;;;8.80;99.90;;;;;;5075668;28;20174;-66
2023/12/21 08:50:30;;;;;;;7.50;6.13;;;8.80;99.90;;;;;;5076089;28;20569;-66
2023/12/21 08:52:59;;;;;;;7.77;5.97;;;8.70;99.90;;;;;;5075459;28;20182;-66
2023/12/21 08:55:25;;;;;;;7.80;5.43;;;8.70;99.90;;;;;;5075567;28;20169;-66
2023/12/21 08:57:51;;;;;;;8.43;5.43;;;8.80;99.90;;;;;;5075972;28;20193;-67
2023/12/21 09:00:19;;;;;;;6.00;5.00;;;8.70;99.90;;;;;;5076226;28;20169;-65
2023/12/21 09:02:46;;;;;;;8.67;5.47;;;8.80;99.90;;;;;;5076130;28;20216;-66
2023/12/21 09:05:13;;;;;;;8.73;5.00;;;8.80;99.90;;;;;;5074305;28;20177;-67
2023/12/21 09:07:39;;;;;;;9.67;5.93;;;8.80;99.90;;;;;;5075327;28;20161;-66
2023/12/21 09:10:06;;;;;;;7.50;5.87;;;8.80;99.90;;;;;;5075247;28;20265;-66
2023/12/21 09:12:32;;;;;;;7.73;5.33;;;8.80;99.90;;;;;;5075241;28;20184;-67
2023/12/21 09:14:58;;;;;;;7.30;5.17;;;8.70;99.90;;;;;;5075048;28;20190;-65
2023/12/21 09:17:24;;;;;;;6.47;4.53;;;8.80;99.90;;;;;;5075098;28;20340;-67
2023/12/21 09:19:50;;;;;;;7.43;4.70;;;8.80;99.90;;;;;;5075197;28;20212;-66
2023/12/21 09:22:16;;;;;;;6.13;4.60;;;8.80;99.90;;;;;;5074681;28;20306;-67
2023/12/21 09:24:41;;;;;;;6.20;4.77;;;8.80;99.90;;;;;;5075006;28;20176;-66
2023/12/21 09:27:07;;;;;;;7.70;4.93;;;8.80;99.90;;;;;;5075005;28;20209;-66
2023/12/21 09:29:33;;;;;;;7.40;4.97;;;8.70;99.90;;;;;;5074973;28;20182;-66
2023/12/21 09:31:59;;;;;;;6.07;4.67;;;8.70;99.90;;;;;;5073506;28;20205;-67
2023/12/21 09:34:25;;;;;;;5.93;4.47;;;8.80;99.90;;;;;;5074885;28;20178;-65
2023/12/21 09:36:53;;;;;;;6.73;4.47;;;8.80;99.90;;;;;;5074524;28;20232;-66
2023/12/21 09:39:19;;;;;;;6.10;4.20;;;8.70;99.90;;;;;;5075394;28;20155;-66
2023/12/21 09:41:45;;;;;;;5.67;4.40;;;8.80;99.90;;;;;;5075416;28;20545;-65
2023/12/21 09:44:17;;;;;;;4.67;4.27;;;8.80;99.90;;;;;;5074611;28;20204;-65
2023/12/21 09:46:48;;;;;;;4.80;4.40;;;8.80;99.90;;;;;;5074811;28;20162;-65
2023/12/21 09:49:15;;;;;;;4.67;4.27;;;8.80;99.90;;;;;;5074706;28;20285;-65
2023/12/21 09:51:43;;;;;;;4.50;4.10;;;8.80;99.90;;;;;;5074091;28;20206;-65
2023/12/21 09:54:10;;;;;;;5.40;4.23;;;8.90;99.90;;;;;;5073287;28;20651;-66
2023/12/21 09:56:37;;;;;;;4.25;3.92;;;8.90;99.90;;;;;;5074420;28;20204;-66
2023/12/21 09:59:04;;;;;;;4.20;3.80;;;8.90;99.90;;;;;;5074359;28;20172;-66
2023/12/21 10:01:30;;;;;;;4.57;3.90;;;8.90;99.90;;;;;;5074361;28;20205;-65
2023/12/21 10:03:57;;;;;;;3.97;3.77;;;8.90;99.90;;;;;;5056968;28;20217;-65
2023/12/21 10:06:24;;;;;;;3.70;3.50;;;8.90;99.90;;;;;;5074297;28;20177;-65
2023/12/21 10:08:50;;;;;;;3.83;3.53;;;9.00;99.90;;;;;;5072958;28;20177;-66
2023/12/21 10:11:16;;;;;;;3.60;3.40;;;9.00;99.90;;;;;;5074231;28;20255;-66
2023/12/21 10:13:47;;;;;;;4.00;3.70;;;9.00;99.90;;;;;;5073910;28;20181;-66
2023/12/21 10:16:13;;;;;;;4.10;3.80;;;9.00;99.90;;;;;;5074530;28;20189;-66
2023/12/21 10:18:40;;;;;;;3.70;3.50;;;9.10;99.90;;;;;;5072682;28;20209;-66
2023/12/21 10:21:06;;;;;;;3.70;3.50;;;9.10;99.90;;;;;;5072645;28;20205;-65
2023/12/21 10:23:34;;;;;;;3.67;3.37;;;9.10;99.90;;;;;;5073653;28;20204;-67
2023/12/21 10:26:00;;;;;;;3.47;3.30;;;9.10;99.90;;;;;;5072485;28;20189;-65
2023/12/21 10:28:26;;;;;;;3.75;3.45;;;9.10;99.90;;;;;;5072621;28;20623;-66
2023/12/21 10:30:56;;;;;;;3.73;3.37;;;9.10;99.90;;;;;;5072503;28;20201;-66
2023/12/21 10:33:25;;;;;;;4.40;3.43;;;9.10;99.90;;;;;;5072583;28;20179;-65
2023/12/21 10:35:52;;;;;;;3.50;3.30;;;9.10;99.90;;;;;;5073705;28;20166;-65
2023/12/21 10:38:18;;;;;;;3.85;3.42;;;9.10;99.90;;;;;;5072106;28;20212;-65
2023/12/21 10:40:46;;;;;;;3.53;3.33;;;9.10;99.90;;;;;;5073819;28;20197;-66
2023/12/21 10:43:16;;;;;;;3.57;3.37;;;9.10;99.90;;;;;;5074181;28;20205;-66
2023/12/21 10:45:46;;;;;;;3.60;3.40;;;9.10;99.90;;;;;;5073770;28;20647;-65
2023/12/21 10:48:15;;;;;;;3.43;3.23;;;9.20;99.90;;;;;;5073503;28;20170;-65
2023/12/21 10:50:43;;;;;;;3.40;3.30;;;9.20;99.90;;;;;;5072306;28;20205;-66
2023/12/21 10:53:11;;;;;;;3.80;3.60;;;9.20;99.90;;;;;;5073293;28;20229;-65
2023/12/21 10:55:38;;;;;;;3.50;3.30;;;9.20;99.90;;;;;;5074639;28;20562;-65
2023/12/21 10:58:06;;;;;;;3.58;3.38;;;9.20;99.90;;;;;;5072655;28;20205;-64
2023/12/21 11:00:33;;;;;;;3.63;3.42;;;9.20;99.90;;;;;;5073868;28;20192;-66
2023/12/21 11:03:00;;;;;;;3.60;3.40;;;9.20;99.90;;;;;;5073726;28;20209;-65
2023/12/21 11:05:27;;;;;;;4.10;3.47;;;9.20;99.90;;;;;;5073594;28;20618;-67
2023/12/21 11:07:54;;;;;;;3.53;3.33;;;9.20;99.90;;;;;;5073012;28;20177;-65
2023/12/21 11:10:22;;;;;;;3.90;3.70;;;9.20;99.90;;;;;;5073429;28;20191;-66
2023/12/21 11:12:49;;;;;;;3.50;3.30;;;9.30;99.90;;;;;;5072200;28;20193;-65
2023/12/21 11:15:19;;;;;;;3.60;3.40;;;9.30;99.90;;;;;;5073217;28;20213;-64
2023/12/21 11:17:58;;;;;;;3.50;3.30;;;9.30;99.90;;;;;;5072033;28;20225;-65
2023/12/21 11:20:32;;;;;;;3.57;3.37;;;9.40;99.90;;;;;;5072131;28;20208;-64
2023/12/21 11:23:06;;;;;;;3.70;3.50;;;9.40;99.90;;;;;;5073252;28;20169;-65
2023/12/21 11:25:33;;;;;;;3.90;3.60;;;9.40;99.90;;;;;;5073256;28;20161;-67
2023/12/21 11:28:01;;;;;;;4.23;4.00;;;9.40;99.90;;;;;;5073248;28;20170;-65
2023/12/21 11:30:29;;;;;;;3.93;3.53;;;9.40;99.90;;;;;;5071852;28;20284;-65
2023/12/21 11:33:09;;;;;;;4.00;3.70;;;9.40;99.90;;;;;;5073280;28;20185;-65
2023/12/21 11:35:36;;;;;;;3.80;3.50;;;9.40;99.90;;;;;;5071722;28;20173;-65
2023/12/21 11:38:08;;;;;;;4.50;4.20;;;9.40;99.90;;;;;;5072818;28;20198;-65
2023/12/21 11:40:36;;;;;;;4.70;4.30;;;9.50;99.90;;;;;;5073298;28;20213;-65
2023/12/21 11:43:06;;;;;;;6.63;4.80;;;9.50;99.90;;;;;;5072947;28;20201;-65
2023/12/21 11:45:32;;;;;;;5.17;4.77;;;9.50;99.90;;;;;;5072727;28;20174;-66
2023/12/21 11:48:00;;;;;;;5.50;5.00;;;9.50;99.90;;;;;;5072676;28;20189;-67
2023/12/21 11:50:30;;;;;;;8.00;5.90;;;9.50;99.90;;;;;;5071573;28;20720;-64
2023/12/21 11:53:09;;;;;;;7.50;6.10;;;9.50;99.90;;;;;;5072734;28;20618;-66
2023/12/21 11:55:43;;;;;;;9.02;7.28;;;9.60;99.90;;;;;;5073388;28;20265;-65
2023/12/21 11:58:21;;;;;;;9.97;7.90;;;9.60;99.90;;;;;;5072710;28;20186;-65
2023/12/21 12:00:50;;;;;;;11.50;8.33;;;9.70;99.90;;;;;;5071455;28;20193;-65
2023/12/21 12:03:17;;;;;;;9.15;7.70;;;9.70;99.90;;;;;;5072715;28;20545;-65
2023/12/21 12:05:44;;;;;;;13.50;8.43;;;9.70;99.90;;;;;;5071426;28;20177;-67
2023/12/21 12:08:10;;;;;;;10.73;8.32;;;9.70;99.90;;;;;;5071900;28;20186;-65
2023/12/21 12:10:36;;;;;;;11.25;9.32;;;9.70;99.90;;;;;;5076541;28;20201;-65
2023/12/21 12:13:03;;;;;;;14.55;9.45;;;9.80;99.90;;;;;;5076599;28;20185;-66
2023/12/21 12:15:30;;;;;;;12.30;10.70;;;9.80;99.90;;;;;;5075384;28;20194;-66
2023/12/21 12:17:56;;;;;;;16.15;10.45;;;9.90;99.90;;;;;;5075079;28;20212;-66
2023/12/21 12:20:22;;;;;;;11.55;10.35;;;9.90;99.90;;;;;;5076329;28;20166;-65
2023/12/21 12:22:52;;;;;;;13.73;10.20;;;9.90;99.90;;;;;;5076503;28;20231;-67
2023/12/21 12:25:18;;;;;;;14.15;10.25;;;9.90;99.90;;;;;;5076244;28;20169;-66
2023/12/21 12:27:45;;;;;;;17.15;9.43;;;9.90;99.90;;;;;;5074938;28;20192;-65
2023/12/21 12:30:12;;;;;;;10.77;8.25;;;9.90;99.90;;;;;;5074922;28;20257;-65
2023/12/21 12:32:38;;;;;;;9.43;7.63;;;9.90;99.90;;;;;;5076723;28;20184;-64
2023/12/21 12:35:07;;;;;;;8.10;6.80;;;9.90;99.90;;;;;;5074772;28;20267;-65
2023/12/21 12:37:35;;;;;;;7.85;7.13;;;10.00;99.90;;;;;;5074383;28;20678;-65
2023/12/21 12:40:04;;;;;;;8.15;6.70;;;10.00;99.90;;;;;;5074833;28;20324;-66
2023/12/21 12:42:31;;;;;;;11.20;6.88;;;10.00;99.90;;;;;;5075855;28;20275;-65
2023/12/21 12:44:59;;;;;;;8.70;6.20;;;10.00;99.90;;;;;;5075806;28;20268;-66
2023/12/21 12:47:27;;;;;;;6.65;6.05;;;10.00;99.90;;;;;;5074730;28;20189;-66
2023/12/21 12:49:53;;;;;;;11.18;5.82;;;10.00;99.90;;;;;;5074437;28;20201;-65